createdAt,value
2023-02-22T00:04:35.595Z,2.84
2023-02-22T00:07:02.244Z,2.81
2023-02-22T00:09:31.685Z,2.90
2023-02-22T00:11:58.740Z,2.95
2023-02-22T00:14:31.115Z,2.82
2023-02-22T00:16:59.532Z,2.78
2023-02-22T00:19:28.923Z,2.82
2023-02-22T00:21:59.898Z,2.87
2023-02-22T00:24:32.988Z,2.91
2023-02-22T00:27:03.424Z,2.97
2023-02-22T00:29:37.727Z,3.07
2023-02-22T00:32:04.686Z,3.12
2023-02-22T00:34:31.801Z,3.13
2023-02-22T00:37:12.063Z,3.15
2023-02-22T00:39:45.231Z,3.16
2023-02-22T00:42:14.526Z,3.17
2023-02-22T00:44:45.361Z,3.28
2023-02-22T00:47:14.352Z,3.34
2023-02-22T00:49:47.176Z,3.35
2023-02-22T00:52:13.812Z,3.39
2023-02-22T00:54:45.948Z,3.46
2023-02-22T00:57:13.244Z,3.52
2023-02-22T00:59:42.390Z,3.54
2023-02-22T01:02:09.503Z,3.58
2023-02-22T01:04:36.575Z,3.65
2023-02-22T01:07:03.465Z,3.77
2023-02-22T01:09:34.904Z,3.88
2023-02-22T01:12:03.021Z,3.89
2023-02-22T01:14:32.714Z,3.85
2023-02-22T01:16:59.491Z,3.83
2023-02-22T01:19:26.207Z,3.78
2023-02-22T01:21:52.930Z,3.79
2023-02-22T01:24:19.774Z,3.81
2023-02-22T01:26:53.525Z,3.83
2023-02-22T01:29:21.205Z,3.82
2023-02-22T01:31:56.365Z,3.82
2023-02-22T01:34:26.050Z,3.87
2023-02-22T01:36:52.844Z,3.86
2023-02-22T01:39:19.564Z,3.88
2023-02-22T01:41:46.429Z,3.91
2023-02-22T01:44:25.028Z,3.92
2023-02-22T01:46:51.699Z,3.89
2023-02-22T01:49:18.631Z,3.86
2023-02-22T01:51:53.085Z,3.83
2023-02-22T01:54:38.548Z,3.79
2023-02-22T01:57:20.023Z,3.70
2023-02-22T02:00:01.790Z,3.55
2023-02-22T02:02:31.881Z,3.39
2023-02-22T02:04:59.254Z,3.19
2023-02-22T02:07:26.730Z,2.99
2023-02-22T02:10:07.642Z,2.80
2023-02-22T02:12:37.192Z,2.64
2023-02-22T02:15:34.355Z,2.49
2023-02-22T02:18:13.532Z,2.37
2023-02-22T02:21:34.912Z,2.39
2023-02-22T02:24:52.320Z,2.49
2023-02-22T02:27:34.257Z,2.49
2023-02-22T02:30:38.117Z,2.44
2023-02-22T02:33:38.848Z,2.37
2023-02-22T02:36:29.622Z,2.26
2023-02-22T02:39:36.706Z,2.31
2023-02-22T02:42:16.284Z,2.34
2023-02-22T02:45:11.708Z,2.33
2023-02-22T02:47:53.798Z,2.37
2023-02-22T02:50:35.026Z,2.43
2023-02-22T02:53:08.756Z,2.46
2023-02-22T02:55:37.615Z,2.56
2023-02-22T02:58:11.374Z,2.63
2023-02-22T03:00:42.517Z,2.71
2023-02-22T03:03:38.626Z,2.83
2023-02-22T03:06:52.231Z,3.01
2023-02-22T03:09:54.765Z,3.23
2023-02-22T03:12:48.702Z,3.39
2023-02-22T03:15:52.972Z,3.55
2023-02-22T03:19:08.195Z,3.66
2023-02-22T03:21:49.836Z,3.77
2023-02-22T03:24:45.985Z,3.82
2023-02-22T03:27:27.965Z,3.85
2023-02-22T03:30:07.754Z,3.88
2023-02-22T03:32:49.296Z,3.88
2023-02-22T03:35:26.361Z,3.89
2023-02-22T03:38:05.387Z,3.91
2023-02-22T03:40:45.530Z,3.91
2023-02-22T03:43:24.880Z,3.92
2023-02-22T03:45:53.205Z,3.93
2023-02-22T03:48:37.808Z,3.94
2023-02-22T03:51:05.728Z,3.96
2023-02-22T03:53:38.385Z,4.01
2023-02-22T03:56:13.710Z,4.05
2023-02-22T03:58:49.970Z,4.07
2023-02-22T04:01:18.005Z,4.07
2023-02-22T04:03:44.774Z,4.07
2023-02-22T04:06:11.843Z,4.06
2023-02-22T04:08:38.916Z,4.02
2023-02-22T04:11:05.942Z,4.03
2023-02-22T04:13:33.901Z,4.01
2023-02-22T04:16:00.719Z,4.01
2023-02-22T04:18:32.721Z,4.05
2023-02-22T04:20:59.406Z,4.05
2023-02-22T04:23:29.032Z,4.05
2023-02-22T04:25:55.797Z,4.07
2023-02-22T04:28:22.887Z,4.07
2023-02-22T04:30:49.624Z,4.08
2023-02-22T04:33:19.416Z,4.09
2023-02-22T04:35:46.171Z,4.08
2023-02-22T04:38:12.802Z,4.07
2023-02-22T04:40:43.956Z,4.08
2023-02-22T04:43:10.668Z,4.09
2023-02-22T04:45:38.761Z,4.10
2023-02-22T04:48:08.275Z,4.13
2023-02-22T04:50:45.202Z,4.14
2023-02-22T04:53:14.762Z,4.22
2023-02-22T04:55:44.579Z,4.25
2023-02-22T04:58:11.324Z,4.27
2023-02-22T05:00:44.243Z,4.32
2023-02-22T05:03:13.761Z,4.36
2023-02-22T05:05:46.503Z,4.38
2023-02-22T05:08:13.184Z,4.43
2023-02-22T05:10:41.944Z,4.43
2023-02-22T05:13:09.814Z,4.44
2023-02-22T05:15:44.012Z,4.46
2023-02-22T05:18:10.746Z,4.46
2023-02-22T05:20:43.103Z,4.47
2023-02-22T05:23:09.772Z,4.45
2023-02-22T05:25:47.938Z,4.45
2023-02-22T05:28:19.406Z,4.44
2023-02-22T05:30:48.652Z,4.38
2023-02-22T05:33:15.742Z,4.40
2023-02-22T05:35:46.253Z,4.40
2023-02-22T05:38:15.214Z,4.41
2023-02-22T05:40:45.021Z,4.41
2023-02-22T05:43:11.741Z,4.42
2023-02-22T05:45:48.544Z,4.44
2023-02-22T05:48:15.350Z,4.45
2023-02-22T05:50:45.155Z,4.46
2023-02-22T05:53:11.934Z,4.45
2023-02-22T05:55:46.429Z,4.41
2023-02-22T05:58:13.270Z,4.38
2023-02-22T06:00:41.792Z,4.34
2023-02-22T06:46:35.669Z,4.36
2023-02-22T06:51:47.726Z,4.33
2023-02-22T06:54:15.172Z,4.35
2023-02-22T06:56:45.268Z,4.35
2023-02-22T06:59:12.329Z,4.39
2023-02-22T07:01:45.175Z,4.50
2023-02-22T07:04:11.834Z,4.60
2023-02-22T07:06:49.780Z,4.67
2023-02-22T07:09:19.042Z,4.71
2023-02-22T07:11:49.841Z,4.78
2023-02-22T07:14:19.423Z,4.91
2023-02-22T07:16:47.655Z,5.02
2023-02-22T07:19:17.336Z,5.10
2023-02-22T07:21:52.397Z,5.18
2023-02-22T07:24:19.203Z,5.24
2023-02-22T07:26:45.893Z,5.36
2023-02-22T07:29:12.556Z,5.46
2023-02-22T07:31:44.851Z,5.50
2023-02-22T07:34:13.016Z,5.58
2023-02-22T07:36:50.875Z,5.63
2023-02-22T07:39:17.687Z,5.69
2023-02-22T07:41:47.288Z,5.73
2023-02-22T07:44:14.003Z,5.78
2023-02-22T07:46:48.854Z,5.76
2023-02-22T07:49:16.088Z,5.82
2023-02-22T07:51:49.073Z,5.82
2023-02-22T07:54:15.813Z,5.86
2023-02-22T07:56:49.287Z,5.85
2023-02-22T07:59:16.642Z,5.88
2023-02-22T08:01:50.988Z,5.91
2023-02-22T08:04:17.533Z,5.90
2023-02-22T08:06:46.283Z,5.93
2023-02-22T08:09:13.007Z,5.90
2023-02-22T08:11:43.751Z,5.96
2023-02-22T08:14:17.319Z,5.98
2023-02-22T08:16:46.530Z,6.00
2023-02-22T08:19:13.177Z,6.00
2023-02-22T08:21:45.442Z,6.00
2023-02-22T08:24:12.195Z,6.03
2023-02-22T08:26:51.602Z,6.01
2023-02-22T08:29:18.294Z,6.07
2023-02-22T08:31:53.989Z,6.09
2023-02-22T08:34:20.831Z,6.16
2023-02-22T08:36:50.621Z,6.20
2023-02-22T08:39:17.484Z,6.18
2023-02-22T08:41:53.236Z,6.26
2023-02-22T08:44:20.020Z,6.29
2023-02-22T08:46:49.758Z,6.36
2023-02-22T08:49:16.490Z,6.37
2023-02-22T08:51:46.375Z,6.43
2023-02-22T08:54:24.553Z,6.44
2023-02-22T08:56:51.469Z,6.47
2023-02-22T08:59:18.246Z,6.52
2023-02-22T09:01:45.070Z,6.53
2023-02-22T09:04:14.142Z,6.56
2023-02-22T09:06:52.198Z,6.61
2023-02-22T09:09:21.462Z,6.57
2023-02-22T09:11:51.462Z,6.62
2023-02-22T09:14:19.603Z,6.70
2023-02-22T09:16:46.525Z,6.68
2023-02-22T09:19:15.588Z,6.74
2023-02-22T09:21:45.435Z,6.74
2023-02-22T09:24:17.878Z,6.80
2023-02-22T09:26:53.281Z,6.84
2023-02-22T09:29:23.532Z,6.90
2023-02-22T09:31:59.323Z,6.99
2023-02-22T09:34:37.701Z,7.14
2023-02-22T09:37:08.637Z,7.32
2023-02-22T09:39:44.759Z,7.33
2023-02-22T09:42:26.022Z,7.40
2023-02-22T09:45:06.162Z,7.59
2023-02-22T09:47:47.138Z,7.62
2023-02-22T09:50:51.182Z,7.72
2023-02-22T09:53:57.875Z,7.77
2023-02-22T09:56:31.213Z,7.95
2023-02-22T09:59:12.308Z,7.89
2023-02-22T10:01:55.274Z,7.93
2023-02-22T10:04:54.898Z,7.91
2023-02-22T10:07:59.333Z,8.03
2023-02-22T10:10:33.969Z,7.99
2023-02-22T10:13:46.886Z,7.97
2023-02-22T10:16:59.506Z,8.08
2023-02-22T10:19:59.924Z,8.06
2023-02-22T10:22:52.905Z,8.13
2023-02-22T10:25:35.013Z,8.23
2023-02-22T10:28:13.462Z,8.38
2023-02-22T10:30:59.137Z,8.44
2023-02-22T10:34:17.803Z,8.44
2023-02-22T10:37:03.300Z,8.37
2023-02-22T10:39:50.115Z,8.31
2023-02-22T10:42:29.093Z,8.58
2023-02-22T10:44:59.589Z,8.85
2023-02-22T10:47:26.510Z,9.09
2023-02-22T10:50:03.763Z,9.24
2023-02-22T10:52:34.628Z,9.06
2023-02-22T10:55:14.681Z,8.85
2023-02-22T10:57:59.221Z,8.84
2023-02-22T11:00:46.727Z,9.07
2023-02-22T11:03:24.306Z,9.19
2023-02-22T11:06:00.946Z,8.96
2023-02-22T11:08:32.905Z,9.17
2023-02-22T11:11:29.111Z,9.24
2023-02-22T11:13:57.209Z,9.42
2023-02-22T11:17:08.370Z,9.34
2023-02-22T11:19:42.234Z,9.35
2023-02-22T11:22:32.376Z,9.49
2023-02-22T11:25:07.649Z,9.52
2023-02-22T11:27:46.897Z,9.62
2023-02-22T11:30:35.498Z,9.66
2023-02-22T11:33:17.445Z,9.48
2023-02-22T11:35:56.757Z,9.37
2023-02-22T11:38:43.837Z,9.22
2023-02-22T11:44:35.795Z,8.63
2023-02-22T11:47:14.557Z,8.49
2023-02-22T11:49:53.552Z,8.39
2023-02-22T11:53:13.862Z,8.54
2023-02-22T11:56:37.799Z,8.68
2023-02-22T12:00:16.352Z,8.73
2023-02-22T12:03:37.369Z,9.31
2023-02-22T12:06:43.770Z,9.08
2023-02-22T12:09:38.260Z,8.90
2023-02-22T12:12:48.183Z,9.16
2023-02-22T12:15:44.222Z,9.34
2023-02-22T12:19:24.469Z,9.48
2023-02-22T12:22:19.177Z,9.58
2023-02-22T12:25:10.353Z,9.32
2023-02-22T13:15:18.304Z,9.45
2023-02-22T13:18:21.932Z,9.08
2023-02-22T13:30:45.762Z,9.34
2023-02-22T13:34:09.862Z,9.61
2023-02-22T13:37:05.866Z,9.85
2023-02-22T13:40:00.164Z,10.10
2023-02-22T13:43:13.751Z,10.23
2023-02-22T13:46:05.032Z,9.99
2023-02-22T13:49:28.638Z,9.36
2023-02-22T13:52:24.361Z,9.22
2023-02-22T13:55:10.840Z,9.11
2023-02-22T13:57:50.220Z,9.13
2023-02-22T14:00:23.524Z,9.14
2023-02-22T14:03:10.944Z,9.25
2023-02-22T14:05:54.470Z,8.96
2023-02-22T14:08:31.606Z,8.96
2023-02-22T14:11:54.251Z,8.93
2023-02-22T14:14:21.786Z,8.83
2023-02-22T14:17:29.917Z,8.82
2023-02-22T14:20:15.693Z,8.78
2023-02-22T14:22:53.285Z,8.89
2023-02-22T14:25:43.562Z,8.92
2023-02-22T14:29:08.431Z,8.96
2023-02-22T14:32:06.919Z,8.85
2023-02-22T14:35:09.560Z,8.85
2023-02-22T14:38:00.531Z,8.81
2023-02-22T14:40:37.632Z,8.93
2023-02-22T14:43:20.884Z,9.01
2023-02-22T14:46:00.171Z,8.92
2023-02-22T14:48:46.203Z,8.80
2023-02-22T14:51:45.714Z,8.74
2023-02-22T14:54:57.920Z,8.69
2023-02-22T14:58:08.021Z,8.70
2023-02-22T15:00:48.985Z,8.66
2023-02-22T15:03:37.241Z,8.60
2023-02-22T15:06:27.678Z,8.51
2023-02-22T15:09:31.871Z,8.43
2023-02-22T15:12:03.302Z,8.40
2023-02-22T15:14:38.913Z,8.32
2023-02-22T15:17:25.062Z,8.37
2023-02-22T15:19:55.287Z,8.37
2023-02-22T15:22:36.280Z,8.30
2023-02-22T15:25:09.722Z,8.22
2023-02-22T15:27:52.646Z,8.19
2023-02-22T15:30:29.863Z,8.17
2023-02-22T15:33:04.508Z,8.09
2023-02-22T15:35:33.988Z,8.06
2023-02-22T15:38:17.318Z,8.02
2023-02-22T15:40:46.198Z,8.02
2023-02-22T15:43:24.278Z,7.99
2023-02-22T15:45:56.317Z,8.01
2023-02-22T15:48:26.163Z,7.95
2023-02-22T15:51:13.956Z,7.94
2023-02-22T15:53:54.812Z,7.92
2023-02-22T15:56:30.923Z,7.90
2023-02-22T15:59:20.576Z,7.85
2023-02-22T16:01:53.984Z,7.83
2023-02-22T16:04:30.508Z,7.77
2023-02-22T16:07:17.829Z,7.71
2023-02-22T16:09:58.457Z,7.67
2023-02-22T16:12:28.482Z,7.62
2023-02-22T16:14:57.017Z,7.55
2023-02-22T16:17:35.639Z,7.52
2023-02-22T16:20:11.399Z,7.46
2023-02-22T16:22:52.282Z,7.43
2023-02-22T16:25:18.876Z,7.38
2023-02-22T16:27:49.561Z,7.32
2023-02-22T16:30:25.027Z,7.28
2023-02-22T16:32:57.484Z,7.20
2023-02-22T16:35:29.637Z,7.21
2023-02-22T16:38:16.897Z,7.19
2023-02-22T16:40:57.997Z,7.12
2023-02-22T16:43:33.367Z,7.06
2023-02-22T16:46:03.090Z,7.03
2023-02-22T16:48:33.508Z,7.02
2023-02-22T16:51:14.798Z,6.98
2023-02-22T16:53:44.748Z,6.96
2023-02-22T16:56:18.247Z,6.97
2023-02-22T16:58:50.795Z,6.93
2023-02-22T17:01:28.018Z,6.90
2023-02-22T17:03:57.702Z,6.93
2023-02-22T17:06:24.455Z,6.93
2023-02-22T17:08:52.128Z,6.97
2023-02-22T17:11:19.875Z,7.01
2023-02-22T17:13:51.538Z,7.00
2023-02-22T17:16:21.061Z,7.00
2023-02-22T17:18:51.317Z,6.97
2023-02-22T17:21:18.179Z,6.95
2023-02-22T17:23:47.958Z,6.94
2023-02-22T17:26:19.201Z,7.00
2023-02-22T17:28:48.687Z,6.94
2023-02-22T17:31:35.349Z,6.95
2023-02-22T17:34:09.480Z,6.93
2023-02-22T17:36:36.454Z,6.89
2023-02-22T17:39:06.751Z,6.87
2023-02-22T17:41:36.020Z,6.88
2023-02-22T17:44:03.388Z,6.93
2023-02-22T17:46:43.415Z,6.95
2023-02-22T17:49:10.269Z,6.99
2023-02-22T17:51:49.301Z,7.02
2023-02-22T17:54:17.988Z,7.04
2023-02-22T17:56:52.611Z,7.07
2023-02-22T17:59:19.887Z,7.10
2023-02-22T18:01:49.591Z,7.06
2023-02-22T18:04:16.457Z,7.08
2023-02-22T18:06:43.183Z,7.08
2023-02-22T18:09:17.766Z,7.04
2023-02-22T18:11:44.477Z,7.02
2023-02-22T18:14:12.225Z,7.01
2023-02-22T18:16:42.041Z,6.98
2023-02-22T18:19:09.173Z,6.95
2023-02-22T18:21:38.873Z,6.92
2023-02-22T18:24:06.471Z,6.91
2023-02-22T18:26:33.350Z,6.92
2023-02-22T18:29:01.080Z,6.93
2023-02-22T18:31:27.819Z,6.92
2023-02-22T19:51:52.684Z,6.62
2023-02-22T20:02:37.662Z,6.57
2023-02-22T21:02:25.132Z,6.58
2023-02-22T21:04:51.878Z,6.54
2023-02-22T22:14:08.624Z,5.73
2023-02-22T22:16:36.860Z,5.69
2023-02-22T22:19:31.144Z,5.62
2023-02-22T22:21:58.630Z,5.58
2023-02-22T22:24:29.503Z,5.55
2023-02-22T22:26:56.713Z,5.58
2023-02-22T22:29:28.526Z,5.54
2023-02-22T22:31:56.201Z,5.62
2023-02-22T22:34:24.381Z,5.63
2023-02-22T22:36:51.456Z,5.70
2023-02-22T22:39:20.933Z,5.69
2023-02-22T22:41:48.486Z,5.66
2023-02-22T22:44:22.004Z,5.66
2023-02-22T22:46:53.444Z,5.64
2023-02-22T22:49:20.608Z,5.65
2023-02-22T22:51:47.617Z,5.65
2023-02-22T22:56:55.527Z,5.69
2023-02-22T22:59:22.161Z,5.73
2023-02-22T23:01:48.903Z,5.75
2023-02-22T23:04:17.238Z,5.75
2023-02-22T23:06:52.419Z,5.75
2023-02-22T23:09:31.648Z,5.75
2023-02-22T23:12:16.659Z,5.71
2023-02-22T23:14:45.757Z,5.71
2023-02-22T23:17:26.841Z,5.69
2023-02-22T23:19:57.283Z,5.69
2023-02-22T23:22:30.278Z,5.68
2023-02-22T23:24:59.811Z,5.67
2023-02-22T23:27:28.016Z,5.67
2023-02-22T23:30:17.678Z,5.63
2023-02-22T23:32:53.205Z,5.61
2023-02-22T23:35:20.048Z,5.59
2023-02-22T23:37:57.754Z,5.54
2023-02-22T23:40:28.996Z,5.49
2023-02-22T23:42:55.840Z,5.49
2023-02-22T23:45:27.596Z,5.50
2023-02-22T23:48:00.701Z,5.51
2023-02-22T23:50:32.953Z,5.50
2023-02-22T23:53:05.517Z,5.49
2023-02-22T23:55:47.390Z,5.49
2023-02-22T23:58:15.852Z,5.49
